createdAt,value
2022-09-28T00:01:23.783Z,96448.44
2022-09-28T00:03:54.651Z,96442.25
2022-09-28T00:06:25.650Z,96433.44
2022-09-28T00:08:53.526Z,96432.28
2022-09-28T00:11:24.257Z,96440.81
2022-09-28T00:13:56.716Z,96435.28
2022-09-28T00:16:28.775Z,96433.66
2022-09-28T00:18:56.568Z,96439.84
2022-09-28T00:21:30.656Z,96430.00
2022-09-28T00:24:13.056Z,96426.56
2022-09-28T00:27:03.006Z,96421.03
2022-09-28T00:29:37.495Z,96424.25
2022-09-28T00:32:12.255Z,96428.88
2022-09-28T00:34:46.099Z,96431.47
2022-09-28T00:37:20.958Z,96423.78
2022-09-28T00:39:52.042Z,96422.38
2022-09-28T00:42:23.817Z,96424.78
2022-09-28T00:44:55.735Z,96430.88
2022-09-28T00:47:55.244Z,96425.28
2022-09-28T00:50:36.668Z,96425.91
2022-09-28T00:53:30.343Z,96433.91
2022-09-28T00:56:04.947Z,96422.09
2022-09-28T00:58:44.742Z,96425.31
2022-09-28T01:01:13.220Z,96422.25
2022-09-28T01:03:45.406Z,96433.00
2022-09-28T01:06:21.179Z,96427.47
2022-09-28T01:08:53.914Z,96431.38
2022-09-28T01:11:21.858Z,96432.56
2022-09-28T01:13:53.373Z,96432.94
2022-09-28T01:16:54.672Z,96433.09
2022-09-28T01:19:57.755Z,96431.31
2022-09-28T01:23:22.822Z,96432.34
2022-09-28T01:26:25.407Z,96443.84
2022-09-28T01:29:17.642Z,96441.00
2022-09-28T01:32:03.391Z,96429.28
2022-09-28T01:34:47.352Z,96432.88
2022-09-28T01:37:21.578Z,96425.19
2022-09-28T01:39:52.629Z,96433.53
2022-09-28T01:42:31.753Z,96443.59
2022-09-28T01:45:09.572Z,96439.28
2022-09-28T01:47:40.616Z,96446.16
2022-09-28T01:50:16.307Z,96434.66
2022-09-28T01:53:03.892Z,96441.31
2022-09-28T01:56:07.374Z,96443.75
2022-09-28T01:58:46.874Z,96439.78
2022-09-28T02:01:55.955Z,96446.06
2022-09-28T02:04:53.312Z,96443.34
2022-09-28T02:07:46.880Z,96449.59
2022-09-28T02:10:22.620Z,96442.47
2022-09-28T02:12:59.926Z,96435.47
2022-09-28T02:15:37.337Z,96440.03
2022-09-28T02:18:05.012Z,96439.22
2022-09-28T02:20:36.506Z,96444.03
2022-09-28T02:23:05.518Z,96446.69
2022-09-28T02:25:47.214Z,96450.53
2022-09-28T02:28:14.649Z,96446.56
2022-09-28T02:30:44.872Z,96448.22
2022-09-28T02:33:37.328Z,96452.47
2022-09-28T02:36:05.791Z,96450.81
2022-09-28T02:38:33.562Z,96450.56
2022-09-28T02:41:50.211Z,96454.00
2022-09-28T02:44:51.266Z,96451.13
2022-09-28T02:47:50.760Z,96448.25
2022-09-28T02:50:45.272Z,96449.63
2022-09-28T02:53:35.436Z,96463.66
2022-09-28T02:56:49.877Z,96454.53
2022-09-28T02:59:50.602Z,96445.06
2022-09-28T03:02:34.942Z,96445.22
2022-09-28T03:05:06.788Z,96448.78
2022-09-28T03:08:02.036Z,96453.44
2022-09-28T03:10:56.238Z,96447.69
2022-09-28T03:13:26.956Z,96444.81
2022-09-28T03:16:18.026Z,96447.00
2022-09-28T03:18:46.484Z,96448.66
2022-09-28T03:21:15.580Z,96460.31
2022-09-28T03:23:43.755Z,96449.63
2022-09-28T03:26:16.873Z,96450.16
2022-09-28T03:28:44.175Z,96446.59
2022-09-28T03:31:11.623Z,96450.72
2022-09-28T03:33:38.921Z,96449.91
2022-09-28T03:36:06.385Z,96459.06
2022-09-28T03:38:33.737Z,96455.09
2022-09-28T03:41:01.019Z,96461.94
2022-09-28T03:43:30.848Z,96456.06
2022-09-28T03:46:01.862Z,96463.75
2022-09-28T03:48:33.210Z,96463.75
2022-09-28T03:51:04.828Z,96457.56
2022-09-28T03:53:33.825Z,96467.69
2022-09-28T03:56:12.239Z,96467.56
2022-09-28T03:58:39.896Z,96457.84
2022-09-28T04:01:17.716Z,96466.34
2022-09-28T04:03:47.159Z,96452.75
2022-09-28T04:06:15.159Z,96467.16
2022-09-28T04:08:43.544Z,96461.81
2022-09-28T04:11:11.125Z,96468.13
2022-09-28T04:13:38.470Z,96458.66
2022-09-28T04:16:06.098Z,96456.59
2022-09-28T04:18:34.663Z,96459.75
2022-09-28T04:21:06.816Z,96460.44
2022-09-28T04:23:36.967Z,96455.91
2022-09-28T04:26:07.174Z,96456.47
2022-09-28T04:28:52.726Z,96460.56
2022-09-28T04:31:23.798Z,96455.50
2022-09-28T04:33:51.218Z,96458.66
2022-09-28T04:36:19.816Z,96451.53
2022-09-28T04:38:54.505Z,96450.59
2022-09-28T04:41:22.762Z,96447.97
2022-09-28T04:43:50.813Z,96444.41
2022-09-28T04:46:18.475Z,96450.59
2022-09-28T04:48:45.897Z,96452.63
2022-09-28T04:51:13.399Z,96453.31
2022-09-28T04:53:40.683Z,96450.72
2022-09-28T04:56:12.791Z,96454.53
2022-09-28T04:58:41.426Z,96453.56
2022-09-28T05:01:15.938Z,96450.44
2022-09-28T05:03:44.939Z,96453.16
2022-09-28T05:06:15.959Z,96459.47
2022-09-28T05:08:43.328Z,96457.13
2022-09-28T05:11:13.515Z,96465.78
2022-09-28T05:13:45.990Z,96452.03
2022-09-28T05:16:16.233Z,96456.41
2022-09-28T05:18:43.898Z,96460.81
2022-09-28T05:21:14.350Z,96462.59
2022-09-28T05:23:47.415Z,96467.81
2022-09-28T05:26:14.958Z,96463.69
2022-09-28T05:28:42.644Z,96472.59
2022-09-28T05:31:09.822Z,96472.28
2022-09-28T05:33:37.309Z,96477.38
2022-09-28T05:36:05.073Z,96471.47
2022-09-28T05:38:32.376Z,96471.47
2022-09-28T05:41:03.185Z,96467.22
2022-09-28T05:43:33.275Z,96468.69
2022-09-28T05:46:00.757Z,96477.19
2022-09-28T05:48:28.466Z,96478.16
2022-09-28T05:50:56.219Z,96478.00
2022-09-28T05:53:24.273Z,96472.72
2022-09-28T05:55:51.540Z,96464.66
2022-09-28T05:58:19.010Z,96468.19
2022-09-28T06:00:46.237Z,96479.94
2022-09-28T06:03:14.842Z,96476.50
2022-09-28T06:05:42.349Z,96484.09
2022-09-28T06:08:13.492Z,96482.97
2022-09-28T06:10:41.063Z,96480.19
2022-09-28T06:13:09.079Z,96472.53
2022-09-28T06:15:38.017Z,96475.72
2022-09-28T06:18:16.889Z,96456.31
2022-09-28T06:20:44.457Z,96461.41
2022-09-28T06:23:13.584Z,96462.38
2022-09-28T06:25:41.858Z,96449.09
2022-09-28T06:28:14.830Z,96461.03
2022-09-28T06:30:43.872Z,96454.56
2022-09-28T06:33:15.528Z,96461.13
2022-09-28T06:35:43.147Z,96456.88
2022-09-28T06:38:11.690Z,96457.41
2022-09-28T06:40:39.602Z,96454.56
2022-09-28T06:43:15.202Z,96467.03
2022-09-28T06:45:43.592Z,96458.66
2022-09-28T06:48:11.577Z,96463.47
2022-09-28T06:50:41.495Z,96451.38
2022-09-28T06:53:13.670Z,96467.97
2022-09-28T06:55:43.449Z,96454.00
2022-09-28T06:58:14.486Z,96456.00
2022-09-28T07:00:44.198Z,96468.91
2022-09-28T07:03:19.119Z,96461.97
2022-09-28T07:05:51.138Z,96483.16
2022-09-28T07:08:20.326Z,96468.69
2022-09-28T07:10:49.830Z,96469.19
2022-09-28T07:13:43.648Z,96475.13
2022-09-28T07:16:05.733Z,96469.28
2022-09-28T07:18:33.234Z,96472.53
2022-09-28T07:21:02.881Z,96467.31
2022-09-28T07:23:30.967Z,96449.91
2022-09-28T07:26:03.909Z,96459.59
2022-09-28T07:28:34.208Z,96451.06
2022-09-28T07:31:03.452Z,96461.16
2022-09-28T07:33:32.864Z,96479.91
2022-09-28T07:36:06.638Z,96473.81
2022-09-28T07:38:34.334Z,96464.78
2022-09-28T07:41:14.363Z,96476.72
2022-09-28T07:43:42.407Z,96470.66
2022-09-28T07:46:12.516Z,96455.84
2022-09-28T07:48:45.834Z,96453.31
2022-09-28T07:51:15.319Z,96453.19
2022-09-28T07:53:42.540Z,96462.63
2022-09-28T07:56:10.007Z,96483.56
2022-09-28T07:58:39.593Z,96464.75
2022-09-28T08:01:13.087Z,96477.16
2022-09-28T08:03:44.374Z,96505.53
2022-09-28T08:06:14.876Z,96476.19
2022-09-28T08:08:44.790Z,96468.38
2022-09-28T08:11:18.866Z,96457.47
2022-09-28T08:13:47.481Z,96462.69
2022-09-28T08:16:14.782Z,96470.22
2022-09-28T08:18:42.222Z,96473.41
2022-09-28T08:21:43.075Z,96477.63
2022-09-28T08:24:10.379Z,96464.72
2022-09-28T08:26:37.934Z,96474.06
2022-09-28T08:29:06.304Z,96463.47
2022-09-28T08:31:33.954Z,96468.38
2022-09-28T08:34:01.789Z,96473.25
2022-09-28T08:36:29.114Z,96463.94
2022-09-28T08:38:56.318Z,96464.81
2022-09-28T08:41:44.178Z,96461.59
2022-09-28T08:44:26.542Z,96467.47
2022-09-28T08:47:33.423Z,96467.66
2022-09-28T08:50:07.752Z,96444.28
2022-09-28T08:52:40.703Z,96462.22
2022-09-28T08:55:22.165Z,96466.25
2022-09-28T08:58:09.470Z,96462.88
2022-09-28T09:00:52.654Z,96478.88
2022-09-28T09:03:35.970Z,96472.66
2022-09-28T09:06:55.675Z,96459.97
2022-09-28T09:09:34.909Z,96465.63
2022-09-28T09:12:34.028Z,96462.81
2022-09-28T09:15:41.308Z,96482.16
2022-09-28T09:18:33.179Z,96467.81
2022-09-28T09:21:16.575Z,96483.78
2022-09-28T09:23:57.346Z,96478.53
2022-09-28T09:26:39.641Z,96484.84
2022-09-28T09:29:20.878Z,96464.53
2022-09-28T09:32:29.254Z,96478.50
2022-09-28T09:35:25.751Z,96487.06
2022-09-28T09:38:46.932Z,96470.84
2022-09-28T09:41:48.861Z,96468.44
2022-09-28T09:44:39.052Z,96502.19
2022-09-28T09:47:16.471Z,96478.41
2022-09-28T09:50:08.412Z,96459.50
2022-09-28T09:52:55.849Z,96468.16
2022-09-28T09:55:29.923Z,96462.06
2022-09-28T09:58:10.286Z,96446.94
2022-09-28T10:00:47.356Z,96445.75
2022-09-28T10:03:32.651Z,96458.91
2022-09-28T10:06:19.565Z,96441.72
2022-09-28T10:09:06.157Z,96449.50
2022-09-28T10:11:50.287Z,96455.81
2022-09-28T10:14:22.128Z,96446.78
2022-09-28T10:16:58.312Z,96436.34
2022-09-28T10:19:34.855Z,96439.94
2022-09-28T10:22:06.411Z,96423.34
2022-09-28T10:24:49.996Z,96419.03
2022-09-28T10:27:26.571Z,96424.16
2022-09-28T10:30:12.846Z,96421.94
2022-09-28T10:32:44.970Z,96426.13
2022-09-28T10:35:30.021Z,96427.69
2022-09-28T10:38:06.164Z,96429.13
2022-09-28T10:40:47.996Z,96426.81
2022-09-28T10:43:38.480Z,96415.53
2022-09-28T10:46:15.181Z,96408.38
2022-09-28T10:49:03.273Z,96397.38
2022-09-28T10:51:54.858Z,96386.00
2022-09-28T10:54:31.562Z,96371.84
2022-09-28T10:57:00.060Z,96374.59
2022-09-28T10:59:30.420Z,96375.00
2022-09-28T11:02:13.066Z,96385.44
2022-09-28T11:04:43.816Z,96347.03
2022-09-28T11:07:33.335Z,96348.13
2022-09-28T11:10:02.326Z,96347.06
2022-09-28T11:12:43.372Z,96353.22
2022-09-28T11:15:24.446Z,96330.94
2022-09-28T11:17:51.847Z,96336.50
2022-09-28T11:20:27.881Z,96335.63
2022-09-28T11:23:01.533Z,96345.94
2022-09-28T11:25:31.451Z,96326.88
2022-09-28T11:28:04.711Z,96321.34
2022-09-28T11:30:53.626Z,96343.00
2022-09-28T11:33:40.239Z,96330.38
2022-09-28T11:36:13.739Z,96334.81
2022-09-28T11:39:18.107Z,96334.81
2022-09-28T11:42:39.783Z,96330.22
2022-09-28T11:45:45.954Z,96315.72
2022-09-28T11:48:21.861Z,96332.84
2022-09-28T11:51:04.185Z,96313.78
2022-09-28T11:53:47.846Z,96308.19
2022-09-28T11:56:38.378Z,96296.13
2022-09-28T11:59:15.259Z,96301.34
2022-09-28T12:01:53.491Z,96312.97
2022-09-28T12:04:52.909Z,96303.59
2022-09-28T12:07:40.295Z,96310.72
2022-09-28T12:10:48.242Z,96306.69
2022-09-28T12:13:22.536Z,96288.50
2022-09-28T12:19:19.304Z,96287.75
2022-09-28T12:21:55.971Z,96291.88
2022-09-28T12:24:43.491Z,96296.75
2022-09-28T12:27:18.570Z,96287.91
2022-09-28T12:30:12.990Z,96287.41
2022-09-28T12:33:04.312Z,96296.00
2022-09-28T12:35:34.544Z,96296.91
2022-09-28T12:39:14.731Z,96283.53
2022-09-28T12:42:34.631Z,96279.66
2022-09-28T12:45:22.935Z,96279.00
2022-09-28T12:48:40.104Z,96278.72
2022-09-28T12:51:49.137Z,96270.50
2022-09-28T12:55:08.180Z,96274.56
2022-09-28T12:57:41.508Z,96283.25
2022-09-28T13:00:25.407Z,96278.28
2022-09-28T13:03:45.742Z,96279.91
2022-09-28T13:06:47.808Z,96268.81
2022-09-28T13:09:25.266Z,96276.47
2022-09-28T13:12:07.426Z,96271.25
2022-09-28T13:15:05.072Z,96264.47
2022-09-28T13:18:28.026Z,96262.06
2022-09-28T13:21:26.341Z,96264.00
2022-09-28T13:24:14.416Z,96265.28
2022-09-28T13:26:48.394Z,96266.16
2022-09-28T13:29:20.185Z,96260.28
2022-09-28T13:31:54.848Z,96255.94
2022-09-28T13:34:28.911Z,96264.19
2022-09-28T13:37:16.928Z,96257.69
2022-09-28T13:39:55.178Z,96260.13
2022-09-28T13:42:36.975Z,96259.50
2022-09-28T13:45:13.977Z,96252.59
2022-09-28T13:48:05.384Z,96244.22
2022-09-28T13:51:13.152Z,96244.56
2022-09-28T13:53:51.257Z,96240.09
2022-09-28T13:56:44.281Z,96241.53
2022-09-28T13:59:30.304Z,96247.19
2022-09-28T14:02:41.280Z,96244.94
2022-09-28T14:05:37.046Z,96235.00
2022-09-28T14:08:11.393Z,96228.31
2022-09-28T14:10:54.953Z,96226.47
2022-09-28T14:13:41.881Z,96224.03
2022-09-28T14:16:27.655Z,96221.97
2022-09-28T14:19:09.415Z,96217.25
2022-09-28T14:21:46.113Z,96223.09
2022-09-28T14:24:32.354Z,96222.88
2022-09-28T14:27:32.538Z,96221.41
2022-09-28T14:30:12.287Z,96212.84
2022-09-28T14:32:48.194Z,96219.81
2022-09-28T14:35:32.659Z,96211.19
2022-09-28T14:38:33.058Z,96221.28
2022-09-28T14:41:13.850Z,96209.59
2022-09-28T14:43:44.878Z,96212.84
2022-09-28T14:46:15.120Z,96215.97
2022-09-28T14:48:51.118Z,96212.53
2022-09-28T14:51:27.626Z,96218.00
2022-09-28T14:54:12.524Z,96204.06
2022-09-28T14:56:51.879Z,96198.09
2022-09-28T14:59:27.503Z,96195.00
2022-09-28T15:02:01.610Z,96196.22
2022-09-28T15:04:31.845Z,96203.28
2022-09-28T15:07:00.437Z,96199.00
2022-09-28T15:09:37.703Z,96200.94
2022-09-28T15:12:18.780Z,96208.91
2022-09-28T15:14:56.015Z,96213.25
2022-09-28T15:17:30.495Z,96206.91
2022-09-28T15:20:30.611Z,96206.06
2022-09-28T15:23:00.188Z,96216.78
2022-09-28T15:25:32.853Z,96213.13
2022-09-28T15:28:17.966Z,96212.31
2022-09-28T15:30:45.906Z,96213.44
2022-09-28T15:33:50.986Z,96205.09
2022-09-28T15:36:26.629Z,96214.38
2022-09-28T15:39:13.033Z,96225.59
2022-09-28T15:41:46.455Z,96232.47
2022-09-28T15:44:33.093Z,96240.06
2022-09-28T15:47:15.283Z,96254.97
2022-09-28T15:50:21.948Z,96254.78
2022-09-28T15:53:05.553Z,96249.19
2022-09-28T15:55:39.312Z,96228.84
2022-09-28T15:58:22.895Z,96244.25
2022-09-28T16:01:25.931Z,96237.44
2022-09-28T16:03:53.337Z,96235.63
2022-09-28T16:06:21.487Z,96242.69
2022-09-28T16:08:49.107Z,96251.59
2022-09-28T16:11:31.565Z,96256.47
2022-09-28T16:14:08.076Z,96259.56
2022-09-28T16:16:47.559Z,96253.66
2022-09-28T16:19:37.104Z,96254.50
2022-09-28T16:22:08.167Z,96260.31
2022-09-28T16:24:39.237Z,96253.56
2022-09-28T16:27:30.301Z,96249.63
2022-09-28T16:30:21.106Z,96245.91
2022-09-28T16:32:53.945Z,96254.41
2022-09-28T16:35:27.545Z,96242.66
2022-09-28T16:38:16.271Z,96260.66
2022-09-28T16:40:49.853Z,96246.44
2022-09-28T16:43:27.064Z,96246.75
2022-09-28T16:46:05.258Z,96232.88
2022-09-28T16:48:49.785Z,96235.31
2022-09-28T16:51:23.137Z,96233.84
2022-09-28T16:54:08.955Z,96236.66
2022-09-28T16:56:37.367Z,96241.94
2022-09-28T16:59:04.879Z,96256.56
2022-09-28T17:01:33.059Z,96245.09
2022-09-28T17:04:00.628Z,96255.75
2022-09-28T17:06:28.191Z,96257.22
2022-09-28T17:08:56.817Z,96261.97
2022-09-28T17:11:25.197Z,96267.22
2022-09-28T17:13:58.406Z,96267.22
2022-09-28T17:19:25.146Z,96279.25
2022-09-28T17:21:53.213Z,96275.09
2022-09-28T17:24:21.384Z,96274.28
2022-09-28T17:26:51.819Z,96271.69
2022-09-28T17:29:20.003Z,96277.13
2022-09-28T17:31:48.027Z,96281.41
2022-09-28T17:34:16.675Z,96282.38
2022-09-28T17:36:45.251Z,96289.28
2022-09-28T17:39:19.114Z,96281.41
2022-09-28T17:41:46.870Z,96278.53
2022-09-28T17:44:16.245Z,96285.22
2022-09-28T17:46:48.756Z,96293.78
2022-09-28T17:49:17.126Z,96291.31
2022-09-28T17:51:44.483Z,96295.25
2022-09-28T17:54:13.088Z,96290.03
2022-09-28T17:56:40.618Z,96297.53
2022-09-28T17:59:12.761Z,96295.25
2022-09-28T18:01:41.157Z,96295.91
2022-09-28T18:04:23.018Z,96296.25
2022-09-28T18:06:55.376Z,96310.66
2022-09-28T18:09:25.285Z,96312.13
2022-09-28T18:12:01.102Z,96324.91
2022-09-28T18:14:28.913Z,96313.59
2022-09-28T18:16:57.131Z,96320.13
2022-09-28T18:19:27.515Z,96324.88
2022-09-28T18:21:58.775Z,96334.72
2022-09-28T18:24:26.168Z,96337.66
2022-09-28T18:26:53.467Z,96327.81
2022-09-28T18:29:21.026Z,96327.31
2022-09-28T18:31:48.889Z,96322.06
2022-09-28T18:34:16.478Z,96325.50
2022-09-28T18:36:44.250Z,96329.94
2022-09-28T18:39:11.781Z,96328.31
2022-09-28T18:41:39.153Z,96334.38
2022-09-28T18:44:06.672Z,96340.25
2022-09-28T18:46:36.757Z,96344.50
2022-09-28T18:49:04.961Z,96342.72
2022-09-28T18:51:32.645Z,96340.91
2022-09-28T18:54:06.756Z,96342.72
2022-09-28T18:56:37.450Z,96347.50
2022-09-28T18:59:12.133Z,96354.03
2022-09-28T19:01:42.054Z,96365.34
2022-09-28T19:04:11.810Z,96368.78
2022-09-28T19:06:42.109Z,96362.06
2022-09-28T19:09:10.344Z,96359.78
2022-09-28T19:11:38.025Z,96360.97
2022-09-28T19:14:05.509Z,96373.72
2022-09-28T19:16:34.197Z,96365.69
2022-09-28T19:19:02.894Z,96369.31
2022-09-28T19:21:31.060Z,96371.13
2022-09-28T19:24:02.461Z,96360.63
2022-09-28T19:26:31.496Z,96361.44
2022-09-28T19:28:59.709Z,96374.38
2022-09-28T19:31:28.600Z,96363.91
2022-09-28T19:33:55.839Z,96380.78
2022-09-28T19:36:28.710Z,96369.13
2022-09-28T19:38:58.944Z,96382.13
2022-09-28T19:41:43.794Z,96384.56
2022-09-28T19:44:25.265Z,96386.38
2022-09-28T19:47:10.173Z,96388.66
2022-09-28T19:49:40.919Z,96392.59
2022-09-28T19:52:17.119Z,96395.34
2022-09-28T19:54:57.032Z,96394.41
2022-09-28T19:57:28.469Z,96399.47
2022-09-28T20:00:01.809Z,96396.03
2022-09-28T20:02:29.899Z,96399.78
2022-09-28T20:04:57.697Z,96410.13
2022-09-28T20:07:24.957Z,96401.13
2022-09-28T20:09:52.273Z,96394.88
2022-09-28T20:12:20.075Z,96400.28
2022-09-28T20:14:47.321Z,96397.84
2022-09-28T20:17:14.670Z,96426.50
2022-09-28T20:19:48.039Z,96426.16
2022-09-28T20:22:19.417Z,96424.69
2022-09-28T20:24:46.866Z,96438.44
2022-09-28T20:27:14.126Z,96444.03
2022-09-28T20:29:43.129Z,96434.03
2022-09-28T20:32:11.685Z,96436.47
2022-09-28T20:34:38.979Z,96446.97
2022-09-28T20:37:06.615Z,96434.53
2022-09-28T20:39:34.564Z,96430.91
2022-09-28T20:42:02.124Z,96438.44
2022-09-28T20:44:29.399Z,96441.41
2022-09-28T20:46:56.908Z,96449.09
2022-09-28T20:49:24.642Z,96451.88
2022-09-28T20:51:51.867Z,96454.50
2022-09-28T20:54:21.133Z,96454.69
2022-09-28T20:56:48.420Z,96460.91
2022-09-28T20:59:22.986Z,96446.66
2022-09-28T21:01:51.138Z,96443.22
2022-09-28T21:04:19.533Z,96463.84
2022-09-28T21:06:47.409Z,96468.91
2022-09-28T21:09:14.984Z,96465.31
2022-09-28T21:11:42.552Z,96474.84
2022-09-28T21:14:10.421Z,96479.09
2022-09-28T21:16:39.068Z,96487.28
2022-09-28T21:19:06.998Z,96481.53
2022-09-28T21:21:34.541Z,96479.56
2022-09-28T21:24:02.583Z,96474.16
2022-09-28T21:26:31.804Z,96480.06
2022-09-28T21:29:11.960Z,96486.09
2022-09-28T21:31:42.481Z,96477.72
2022-09-28T21:34:19.474Z,96474.75
2022-09-28T21:36:53.429Z,96464.63
2022-09-28T21:39:21.451Z,96470.16
2022-09-28T21:41:51.930Z,96489.81
2022-09-28T21:44:19.215Z,96505.22
2022-09-28T21:46:46.693Z,96515.88
2022-09-28T21:49:14.351Z,96517.97
2022-09-28T21:51:41.703Z,96514.38
2022-09-28T21:54:09.015Z,96513.53
2022-09-28T21:56:36.414Z,96516.50
2022-09-28T21:59:03.779Z,96518.66
2022-09-28T22:01:31.929Z,96523.22
2022-09-28T22:03:59.555Z,96522.88
2022-09-28T22:06:30.496Z,96513.22
2022-09-28T22:08:58.446Z,96523.22
2022-09-28T22:11:28.752Z,96530.09
2022-09-28T22:14:00.193Z,96525.97
2022-09-28T22:16:31.436Z,96520.59
2022-09-28T22:19:00.052Z,96520.41
2022-09-28T22:21:32.066Z,96526.31
2022-09-28T22:24:06.609Z,96535.31
2022-09-28T22:26:37.166Z,96537.63
2022-09-28T22:29:08.959Z,96537.94
2022-09-28T22:31:39.782Z,96548.72
2022-09-28T22:34:08.958Z,96545.81
2022-09-28T22:36:36.726Z,96546.78
2022-09-28T22:39:04.916Z,96551.16
2022-09-28T22:41:32.579Z,96550.50
2022-09-28T22:44:00.060Z,96552.47
2022-09-28T22:46:31.835Z,96552.31
2022-09-28T22:49:00.862Z,96558.53
2022-09-28T22:51:30.998Z,96561.16
2022-09-28T22:53:58.940Z,96564.75
2022-09-28T22:56:26.493Z,96557.88
2022-09-28T22:58:53.977Z,96566.88
2022-09-28T23:01:25.086Z,96568.19
2022-09-28T23:03:54.232Z,96577.69
2022-09-28T23:06:26.060Z,96565.56
2022-09-28T23:08:53.854Z,96574.25
2022-09-28T23:11:21.483Z,96571.63
2022-09-28T23:13:54.358Z,96569.19
2022-09-28T23:16:23.660Z,96566.72
2022-09-28T23:18:51.520Z,96559.16
2022-09-28T23:21:22.467Z,96555.72
2022-09-28T23:23:57.344Z,96555.56
2022-09-28T23:26:28.813Z,96552.94
2022-09-28T23:28:57.335Z,96554.28
2022-09-28T23:31:31.209Z,96550.34
2022-09-28T23:34:06.757Z,96544.00
2022-09-28T23:36:34.610Z,96552.19
2022-09-28T23:39:03.628Z,96565.00
2022-09-28T23:41:30.944Z,96574.31
2022-09-28T23:43:58.298Z,96578.09
2022-09-28T23:46:25.806Z,96572.34
2022-09-28T23:48:53.174Z,96575.59
2022-09-28T23:51:20.429Z,96579.53
2022-09-28T23:53:47.847Z,96588.38
2022-09-28T23:56:15.415Z,96597.50
2022-09-28T23:58:43.020Z,96585.88
